Time;durP1;ratioP1;P1;durP2;ratioP2;P2;SDS_P1;SDS_P2;PMS_P1;PMS_P2;Temp;Humidity;BMP_temperature;BMP_pressure;BME280_temperature;BME280_humidity;BME280_pressure;Samples;Min_cycle;Max_cycle;Signal;HPM_P1;HPM_P2
2023/07/07 00:00:51;;;;;;;10.65;8.58;;;;;;;20.49;100.00;100151.00;1782705;80;21063;-66
2023/07/07 00:03:20;;;;;;;12.13;9.43;;;;;;;20.44;100.00;100145.41;1782696;80;20991;-66
2023/07/07 00:05:50;;;;;;;14.43;9.50;;;;;;;20.39;100.00;100146.21;1716040;83;21031;-66
2023/07/07 00:08:18;;;;;;;11.10;9.10;;;;;;;20.40;100.00;100153.45;1782672;80;21059;-65
2023/07/07 00:10:47;;;;;;;12.18;9.60;;;;;;;20.41;100.00;100152.90;1782649;80;21423;-67
2023/07/07 00:13:16;;;;;;;12.07;9.23;;;;;;;20.40;100.00;100145.66;1782734;80;21419;-65
2023/07/07 00:15:44;;;;;;;13.03;9.05;;;;;;;20.38;100.00;100138.94;1773713;80;21082;-65
2023/07/07 00:18:27;;;;;;;10.43;8.18;;;;;;;20.37;100.00;100130.86;1752129;82;21071;-66
2023/07/07 00:21:01;;;;;;;12.35;8.95;;;;;;;20.35;100.00;100119.99;1751807;82;21031;-66
2023/07/07 00:23:30;;;;;;;10.75;8.85;;;;;;;20.34;100.00;100123.88;1751994;82;21395;-66
2023/07/07 00:26:02;;;;;;;10.85;8.60;;;;;;;20.36;100.00;100120.83;1751987;82;21377;-66
2023/07/07 00:28:31;;;;;;;11.43;9.00;;;;;;;20.37;100.00;100120.56;1751625;81;21008;-66
2023/07/07 00:31:00;;;;;;;12.07;8.65;;;;;;;20.37;100.00;100117.78;1751781;81;21000;-67
2023/07/07 00:33:30;;;;;;;10.93;8.53;;;;;;;20.36;100.00;100109.70;1747398;81;21044;-68
2023/07/07 00:35:58;;;;;;;13.83;9.50;;;;;;;20.31;100.00;100111.90;1744112;82;21047;-66
2023/07/07 00:38:28;;;;;;;10.63;8.85;;;;;;;20.31;100.00;100117.47;1743849;81;21087;-67
2023/07/07 00:41:05;;;;;;;13.20;9.33;;;;;;;20.32;100.00;100109.41;1743715;81;21028;-68
2023/07/07 00:43:33;;;;;;;;;;;;;;;20.32;100.00;100112.19;1746625;82;21028;-68
2023/07/07 00:46:02;;;;;;;14.98;11.28;;;;;;;20.33;100.00;100111.63;1743490;81;20156;-69
2023/07/07 00:48:37;;;;;;;16.45;12.23;;;;;;;20.31;100.00;100125.81;1743689;82;21420;-66
2023/07/07 00:51:15;;;;;;;20.08;13.65;;;;;;;20.32;100.00;100138.62;1744011;81;21092;-67
2023/07/07 00:53:44;;;;;;;;;;;;;;;20.35;100.00;100150.61;1746631;82;21456;-67
2023/07/07 00:56:23;;;;;;;22.67;14.30;;;;;;;20.40;100.00;100181.28;1744136;82;20153;-66
2023/07/07 00:58:56;;;;;;;18.73;13.30;;;;;;;20.42;100.00;100199.11;1743899;81;21036;-67
2023/07/07 01:01:24;;;;;;;16.67;12.47;;;;;;;20.45;100.00;100214.72;1743837;82;21051;-68
2023/07/07 01:04:01;;;;;;;18.17;12.07;;;;;;;20.44;100.00;100203.85;1743810;82;21016;-67
2023/07/07 01:06:34;;;;;;;13.68;10.23;;;;;;;20.45;100.00;100202.19;1743807;81;21444;-67
2023/07/07 01:09:08;;;;;;;14.58;9.93;;;;;;;20.47;100.00;100208.33;1744011;82;21059;-68
2023/07/07 01:11:39;;;;;;;10.40;8.53;;;;;;;20.50;100.00;100227.83;1743846;81;21070;-67
2023/07/07 01:14:12;;;;;;;12.30;8.48;;;;;;;20.52;100.00;100238.98;1743887;81;21064;-67
2023/07/07 01:17:06;;;;;;;10.03;8.28;;;;;;;20.53;100.00;100249.56;1743932;81;21087;-67
2023/07/07 01:19:56;;;;;;;12.53;9.45;;;;;;;20.57;100.00;100256.28;1743910;82;21083;-67
2023/07/07 01:22:48;;;;;;;11.78;8.70;;;;;;;20.58;100.00;100269.92;1744019;82;21025;-67
2023/07/07 01:25:38;;;;;;;12.40;9.60;;;;;;;20.61;100.00;100287.20;1743991;81;21424;-68
2023/07/07 01:28:22;;;;;;;12.05;9.60;;;;;;;20.62;100.00;100286.94;1743956;82;21036;-67
2023/07/07 01:31:02;;;;;;;12.85;9.55;;;;;;;20.64;100.00;100285.28;1743904;82;21482;-67
2023/07/07 01:33:31;;;;;;;17.75;10.48;;;;;;;20.66;100.00;100281.13;1743896;81;21019;-67
2023/07/07 01:36:00;;;;;;;12.47;9.45;;;;;;;20.68;100.00;100266.38;1743872;82;21054;-66
2023/07/07 01:38:38;;;;;;;16.65;11.12;;;;;;;20.69;100.00;100254.69;1744204;82;21012;-67
2023/07/07 01:41:33;;;;;;;12.15;9.55;;;;;;;20.72;100.00;100249.98;1744103;82;21549;-68
2023/07/07 01:44:07;;;;;;;12.37;9.43;;;;;;;20.73;100.00;100246.92;1744154;82;21065;-68
2023/07/07 01:46:42;;;;;;;13.90;10.48;;;;;;;20.72;100.00;100231.88;1743347;81;21000;-67
2023/07/07 01:49:31;;;;;;;15.23;10.53;;;;;;;20.71;100.00;100219.06;1743361;81;21522;-67
2023/07/07 01:52:15;;;;;;;15.88;11.93;;;;;;;20.72;100.00;100194.28;1744078;82;21028;-68
2023/07/07 01:54:51;;;;;;;15.40;12.00;;;;;;;20.73;100.00;100183.44;1744124;81;21056;-70
2023/07/07 01:57:21;;;;;;;17.52;12.85;;;;;;;20.76;100.00;100177.32;1744155;82;21028;-68
2023/07/07 01:59:50;;;;;;;18.92;13.22;;;;;;;20.76;100.00;100166.19;1744374;82;21028;-68
2023/07/07 02:02:21;;;;;;;17.80;12.63;;;;;;;20.75;100.00;100140.84;1743712;82;21060;-68
2023/07/07 02:04:50;;;;;;;17.30;12.50;;;;;;;20.72;100.00;100128.30;1758230;81;21051;-67
2023/07/07 02:07:19;;;;;;;17.57;13.08;;;;;;;20.71;100.00;100117.43;1743898;81;21020;-68
2023/07/07 02:09:49;;;;;;;17.15;13.30;;;;;;;20.71;100.00;100121.61;1744038;81;21917;-68
2023/07/07 02:12:19;;;;;;;22.75;14.40;;;;;;;20.72;100.00;100131.64;1744134;82;21083;-67
2023/07/07 02:14:47;;;;;;;20.82;14.78;;;;;;;20.71;100.00;100157.25;1743771;82;21012;-68
2023/07/07 02:17:18;;;;;;;22.42;15.25;;;;;;;20.71;100.00;100161.98;1744092;81;21012;-66
2023/07/07 02:19:49;;;;;;;21.97;15.70;;;;;;;20.71;100.00;100157.80;1743955;81;21526;-66
2023/07/07 02:22:17;;;;;;;22.30;15.80;;;;;;;20.75;100.00;100151.98;1744089;82;21008;-66
2023/07/07 02:24:46;;;;;;;25.02;17.15;;;;;;;20.77;100.00;100146.98;1744060;82;21004;-67
2023/07/07 02:27:15;;;;;;;24.43;17.20;;;;;;;20.77;100.00;100158.11;1743824;81;21475;-69
2023/07/07 02:29:45;;;;;;;23.50;17.10;;;;;;;20.77;100.00;100163.69;1743831;82;21020;-68
2023/07/07 02:32:14;;;;;;;22.52;16.62;;;;;;;20.77;100.00;100165.08;1743871;81;21040;-68
2023/07/07 02:34:47;;;;;;;25.02;17.05;;;;;;;20.75;100.00;100169.52;1754109;81;21047;-68
2023/07/07 02:37:16;;;;;;;23.75;17.70;;;;;;;20.73;100.00;100177.31;1757266;81;21479;-67
2023/07/07 02:39:46;;;;;;;22.55;17.50;;;;;;;20.72;100.00;100177.02;1757148;81;21031;-68
2023/07/07 02:42:15;;;;;;;23.70;16.82;;;;;;;20.74;100.00;100167.01;1757213;81;21019;-68
2023/07/07 02:44:43;;;;;;;28.23;20.00;;;;;;;20.75;100.00;100143.07;1757365;82;21024;-69
2023/07/07 02:47:12;;;;;;;29.55;20.52;;;;;;;20.75;100.00;100125.52;1757174;82;20980;-68
2023/07/07 02:49:41;;;;;;;29.52;20.57;;;;;;;20.74;100.00;100121.90;1757350;81;21435;-68
2023/07/07 02:52:10;;;;;;;30.37;22.25;;;;;;;20.76;100.00;100134.16;1757140;82;21027;-69
2023/07/07 02:54:42;;;;;;;39.80;24.82;;;;;;;20.78;100.00;100136.95;1757504;81;21027;-68
2023/07/07 02:57:11;;;;;;;38.92;27.32;;;;;;;20.81;100.00;100143.41;1757383;82;21109;-69
2023/07/07 02:59:41;;;;;;;47.05;29.37;;;;;;;20.83;100.00;100152.33;1757323;81;21513;-69
2023/07/07 03:02:10;;;;;;;42.33;28.07;;;;;;;20.86;100.00;100145.37;1757245;80;21063;-67
2023/07/07 03:04:38;;;;;;;40.48;28.25;;;;;;;20.86;100.00;100135.08;1757318;80;21504;-68
2023/07/07 03:07:07;;;;;;;40.10;25.52;;;;;;;20.86;100.00;100137.02;1757411;82;21011;-68
2023/07/07 03:09:36;;;;;;;27.13;20.00;;;;;;;20.87;100.00;100138.70;1765363;80;21023;-68
2023/07/07 03:12:07;;;;;;;28.55;19.32;;;;;;;20.88;100.00;100120.32;1757388;82;21082;-67
2023/07/07 03:14:37;;;;;;;33.65;22.95;;;;;;;20.90;100.00;100114.48;1757327;82;21062;-67
2023/07/07 03:17:09;;;;;;;32.33;22.27;;;;;;;20.91;100.00;100107.80;1757343;82;21026;-67
2023/07/07 03:19:44;;;;;;;31.95;22.48;;;;;;;20.92;100.00;100097.49;1757124;81;21024;-67
2023/07/07 03:22:17;;;;;;;;;;;;;;;20.89;100.00;100105.28;1759936;82;21000;-67
2023/07/07 03:24:52;;;;;;;42.55;26.07;;;;;;;20.89;100.00;100108.08;1756558;81;20171;-67
2023/07/07 03:27:31;;;;;;;43.63;26.77;;;;;;;20.91;100.00;100109.19;1756504;81;21056;-67
2023/07/07 03:30:00;;;;;;;38.70;26.57;;;;;;;20.93;100.00;100117.27;1757456;82;21082;-67
2023/07/07 03:32:30;;;;;;;40.15;27.27;;;;;;;20.94;100.00;100117.00;1757393;81;21012;-66
2023/07/07 03:35:01;;;;;;;41.55;25.60;;;;;;;20.95;100.00;100116.45;1747119;81;21028;-67
2023/07/07 03:37:31;;;;;;;38.10;26.15;;;;;;;20.98;100.00;100120.91;1744068;81;21012;-67
2023/07/07 03:40:00;;;;;;;42.73;26.87;;;;;;;21.01;100.00;100125.10;1744118;82;21067;-67
2023/07/07 03:42:30;;;;;;;45.95;26.70;;;;;;;21.06;100.00;100139.88;1733405;82;21095;-67
2023/07/07 03:45:00;;;;;;;44.10;27.10;;;;;;;21.11;100.00;100141.85;1743627;81;21052;-67
2023/07/07 03:47:32;;;;;;;42.05;27.27;;;;;;;21.17;100.00;100147.72;1743771;82;21467;-66
2023/07/07 03:50:00;;;;;;;36.05;24.47;;;;;;;21.21;100.00;100153.87;1733580;82;21063;-67
2023/07/07 03:52:31;;;;;;;34.08;22.00;;;;;;;21.26;100.00;100160.59;1743696;81;21012;-67
2023/07/07 03:55:02;;;;;;;31.33;21.68;;;;;;;21.27;100.00;100166.45;1743909;82;21087;-67
2023/07/07 03:57:31;;;;;;;25.92;19.45;;;;;;;21.32;100.00;100177.61;1743948;82;21032;-66
2023/07/07 04:00:00;;;;;;;23.90;18.32;;;;;;;21.34;100.00;100183.20;1743947;81;21007;-67
2023/07/07 04:02:29;;;;;;;19.15;15.50;;;;;;;21.38;100.00;100184.33;1743789;82;21040;-67
2023/07/07 04:04:58;;;;;;;19.20;15.53;;;;;;;21.38;100.00;100192.69;1743932;82;21020;-66
2023/07/07 04:07:28;;;;;;;18.70;15.83;;;;;;;21.38;100.00;100191.85;1743880;81;21051;-66
2023/07/07 04:09:57;;;;;;;21.48;15.58;;;;;;;21.38;100.00;100194.08;1744056;82;21000;-67
2023/07/07 04:12:29;;;;;;;21.97;15.70;;;;;;;21.41;100.00;100203.29;1743590;82;21012;-67
2023/07/07 04:15:01;;;;;;;17.10;14.00;;;;;;;21.48;100.00;100201.67;1743905;82;21009;-66
2023/07/07 04:17:30;;;;;;;18.70;14.43;;;;;;;21.51;100.00;100198.33;1743840;82;21063;-66
2023/07/07 04:20:00;;;;;;;17.02;14.10;;;;;;;21.49;100.00;100202.79;1743689;82;21016;-66
2023/07/07 04:22:30;;;;;;;17.57;14.00;;;;;;;21.51;100.00;100206.70;1743941;82;21071;-67
2023/07/07 04:25:15;;;;;;;16.10;13.20;;;;;;;21.54;100.00;100207.53;1743906;82;21051;-66
2023/07/07 04:27:45;;;;;;;15.78;13.80;;;;;;;21.55;100.00;100210.61;1743986;82;21023;-65
2023/07/07 04:30:14;;;;;;;17.98;13.90;;;;;;;21.55;100.00;100200.84;1743508;81;21036;-66
2023/07/07 04:32:43;;;;;;;15.70;13.48;;;;;;;21.56;100.00;100203.92;1743774;82;21079;-66
2023/07/07 04:35:13;;;;;;;16.73;13.80;;;;;;;21.55;100.00;100198.06;1743752;82;21044;-66
2023/07/07 04:37:43;;;;;;;17.65;14.28;;;;;;;21.53;100.00;100183.56;1744118;82;21011;-66
2023/07/07 04:40:12;;;;;;;15.43;13.78;;;;;;;21.52;100.00;100187.46;1743806;82;21452;-66
2023/07/07 04:42:42;;;;;;;18.80;15.20;;;;;;;21.51;100.00;100186.63;1743557;81;20996;-66
2023/07/07 04:45:10;;;;;;;16.45;14.63;;;;;;;21.50;100.00;100193.31;1744016;82;21020;-65
2023/07/07 04:47:40;;;;;;;19.25;15.88;;;;;;;21.50;100.00;100197.48;1743959;82;21008;-66
2023/07/07 04:50:11;;;;;;;21.52;18.02;;;;;;;21.50;100.00;100193.87;1744111;82;21478;-66
2023/07/07 04:52:41;;;;;;;20.68;18.23;;;;;;;21.51;100.00;100188.58;1743919;82;20985;-66
2023/07/07 04:55:09;;;;;;;21.85;18.80;;;;;;;21.49;100.00;100181.04;1743849;82;21044;-66
2023/07/07 04:57:39;;;;;;;21.52;19.07;;;;;;;21.48;100.00;100184.38;1758207;81;21052;-67
2023/07/07 05:00:09;;;;;;;20.40;17.92;;;;;;;21.47;100.00;100174.91;1743904;82;21047;-66
2023/07/07 05:02:38;;;;;;;20.57;18.40;;;;;;;21.48;100.00;100166.82;1743869;82;21039;-66
2023/07/07 05:05:07;;;;;;;22.62;19.32;;;;;;;21.49;100.00;100152.61;1744096;82;21063;-65
2023/07/07 05:07:36;;;;;;;23.70;19.60;;;;;;;21.51;100.00;100153.16;1744024;82;21008;-68
2023/07/07 05:10:07;;;;;;;24.87;20.43;;;;;;;21.55;100.00;100162.37;1744251;81;21133;-67
2023/07/07 05:12:39;;;;;;;27.22;19.85;;;;;;;21.60;100.00;100161.83;1743934;81;21036;-66
2023/07/07 05:15:08;;;;;;;25.17;21.05;;;;;;;21.65;100.00;100165.18;1744023;81;21040;-67
2023/07/07 05:17:37;;;;;;;26.55;19.27;;;;;;;21.68;100.00;100166.86;1744610;82;21463;-66
2023/07/07 05:20:08;;;;;;;24.47;17.82;;;;;;;21.72;100.00;100173.55;1744420;81;21046;-66
2023/07/07 05:22:36;;;;;;;23.18;17.90;;;;;;;21.75;100.00;100156.82;1743898;82;21456;-66
2023/07/07 05:25:06;;;;;;;24.67;18.55;;;;;;;21.76;100.00;100157.94;1744106;82;21063;-65
2023/07/07 05:27:36;;;;;;;20.02;16.60;;;;;;;21.82;100.00;100165.20;1744140;82;21400;-66
2023/07/07 05:30:07;;;;;;;17.82;14.33;;;;;;;21.84;100.00;100178.31;1743941;81;21045;-66
2023/07/07 05:32:37;;;;;;;18.20;14.80;;;;;;;21.87;100.00;100181.66;1743819;82;21468;-67
2023/07/07 05:35:06;;;;;;;17.65;13.95;;;;;;;21.83;100.00;100173.84;1750649;81;21067;-67
2023/07/07 05:37:35;;;;;;;14.23;12.13;;;;;;;21.84;100.00;100181.09;1757190;82;21024;-67
2023/07/07 05:40:05;;;;;;;14.45;12.43;;;;;;;21.85;100.00;100173.56;1757404;80;21051;-66
2023/07/07 05:42:34;;;;;;;13.90;10.53;;;;;;;21.88;100.00;100173.02;1757411;81;21082;-66
2023/07/07 05:45:05;;;;;;;13.45;10.20;;;;;;;21.97;100.00;100176.92;1757088;82;21067;-67
2023/07/07 05:47:35;;;;;;;13.72;10.28;;;;;;;22.09;100.00;100164.95;1757133;81;21031;-67
2023/07/07 05:50:06;;;;;;;14.10;9.95;;;;;;;22.22;100.00;100173.34;1757230;82;21044;-66
2023/07/07 05:52:34;;;;;;;12.05;8.68;;;;;;;22.37;100.00;100170.54;1757136;82;21462;-66
2023/07/07 05:55:06;;;;;;;14.43;9.55;;;;;;;22.59;99.43;100170.78;1757387;82;21033;-68
2023/07/07 05:57:35;;;;;;;12.07;8.88;;;;;;;22.85;98.00;100168.81;1757196;81;21451;-67
2023/07/07 06:00:05;;;;;;;12.78;9.25;;;;;;;23.09;94.16;100170.67;1757489;80;21055;-65
2023/07/07 06:02:36;;;;;;;9.48;7.85;;;;;;;23.34;92.86;100175.86;1740401;82;21477;-66
2023/07/07 06:05:06;;;;;;;9.98;8.25;;;;;;;23.54;89.79;100170.75;1757341;82;21031;-66
2023/07/07 06:07:34;;;;;;;12.58;8.08;;;;;;;23.62;89.09;100172.40;1757189;82;21012;-67
2023/07/07 06:10:04;;;;;;;10.53;8.60;;;;;;;23.71;89.61;100176.25;1757231;82;21027;-66
2023/07/07 06:12:35;;;;;;;14.80;8.25;;;;;;;23.79;87.30;100176.20;1757302;82;21026;-66
2023/07/07 06:15:06;;;;;;;9.05;7.40;;;;;;;23.77;86.53;100173.42;1757369;82;21015;-65
2023/07/07 06:17:36;;;;;;;10.50;7.83;;;;;;;23.71;86.53;100174.85;1757231;81;21525;-66
2023/07/07 06:20:06;;;;;;;9.53;7.58;;;;;;;23.61;85.67;100180.52;1757388;81;21190;-66
2023/07/07 06:22:35;;;;;;;9.83;7.75;;;;;;;23.51;84.77;100174.12;1757085;80;21459;-67
2023/07/07 06:25:04;;;;;;;10.70;8.40;;;;;;;23.45;85.81;100170.52;1757402;81;21023;-67
2023/07/07 06:27:34;;;;;;;10.82;7.58;;;;;;;23.41;86.04;100169.42;1757231;81;21463;-66
2023/07/07 06:30:06;;;;;;;25.20;17.80;;;;;;;23.48;86.85;100168.54;1757259;82;21042;-66
2023/07/07 06:32:35;;;;;;;9.90;8.90;;;;;;;23.64;86.58;100170.71;1757281;81;21015;-65
2023/07/07 06:35:04;;;;;;;9.43;8.38;;;;;;;23.82;85.08;100171.98;1757230;82;21027;-66
2023/07/07 06:37:33;;;;;;;9.75;7.87;;;;;;;23.93;83.74;100170.78;1757351;82;21062;-66
2023/07/07 06:40:03;;;;;;;10.25;7.55;;;;;;;24.01;83.85;100171.55;1757500;82;21087;-64
2023/07/07 06:42:32;;;;;;;11.22;8.18;;;;;;;24.14;83.75;100164.48;1757140;81;21491;-66
2023/07/07 06:45:03;;;;;;;12.00;8.25;;;;;;;24.37;83.15;100164.30;1756554;81;21019;-66
2023/07/07 06:47:33;;;;;;;9.83;7.60;;;;;;;24.65;81.54;100166.24;1757108;80;21019;-66
2023/07/07 06:50:01;;;;;;;9.35;8.10;;;;;;;24.85;78.21;100163.81;1757111;82;21070;-66
2023/07/07 06:52:31;;;;;;;9.53;6.92;;;;;;;25.01;77.28;100163.92;1757185;81;21027;-66
2023/07/07 06:55:00;;;;;;;10.75;7.28;;;;;;;25.19;77.44;100170.14;1757429;82;21007;-65
2023/07/07 06:57:29;;;;;;;9.35;7.40;;;;;;;25.35;77.85;100177.78;1757161;81;21087;-66
2023/07/07 06:59:57;;;;;;;9.28;7.28;;;;;;;25.48;75.85;100179.87;1757217;82;20992;-66
2023/07/07 07:02:27;;;;;;;9.53;6.80;;;;;;;25.58;76.14;100185.34;1757048;82;21238;-66
2023/07/07 07:04:56;;;;;;;9.20;6.92;;;;;;;25.80;76.27;100184.76;1757414;82;21019;-65
2023/07/07 07:07:25;;;;;;;10.78;7.62;;;;;;;26.11;72.75;100182.33;1757163;82;21047;-66
2023/07/07 07:09:54;;;;;;;6.72;6.05;;;;;;;26.26;70.38;100186.02;1757104;81;21063;-66
2023/07/07 07:12:23;;;;;;;8.68;6.05;;;;;;;26.36;71.21;100192.89;1757123;82;21023;-67
2023/07/07 07:14:52;;;;;;;10.65;5.90;;;;;;;26.34;69.79;100196.58;1757346;82;22161;-66
2023/07/07 07:17:23;;;;;;;8.98;6.20;;;;;;;26.31;69.14;100207.00;1757321;82;21015;-66
2023/07/07 07:19:52;;;;;;;8.95;5.20;;;;;;;26.33;70.14;100204.17;1757192;81;21036;-65
2023/07/07 07:22:21;;;;;;;9.43;5.80;;;;;;;26.41;68.86;100196.45;1757037;80;21035;-65
2023/07/07 07:24:50;;;;;;;8.48;5.95;;;;;;;26.56;68.51;100195.33;1757220;82;21055;-65
2023/07/07 07:27:19;;;;;;;8.38;5.20;;;;;;;26.74;67.60;100202.89;1757031;81;21102;-65
2023/07/07 07:29:47;;;;;;;6.90;5.03;;;;;;;26.90;66.33;100205.41;1757358;80;21066;-65
2023/07/07 07:32:18;;;;;;;9.45;5.12;;;;;;;27.51;64.14;100212.64;1757237;80;21041;-66
2023/07/07 07:34:48;;;;;;;6.92;5.30;;;;;;;27.51;64.14;100212.64;1756915;82;21246;-65
2023/07/07 07:37:16;;;;;;;10.78;5.05;;;;;;;27.72;64.61;100213.87;1757284;82;21432;-66
2023/07/07 07:39:46;;;;;;;5.67;4.72;;;;;;;27.88;64.08;100220.82;1757121;81;21071;-66
2023/07/07 07:42:15;;;;;;;10.43;4.97;;;;;;;27.90;63.30;100222.74;1757404;82;21098;-65
2023/07/07 07:44:44;;;;;;;4.97;4.50;;;;;;;27.74;63.43;100228.47;1757205;82;21026;-67
2023/07/07 07:47:14;;;;;;;6.75;4.92;;;;;;;27.56;62.80;100227.43;1678682;85;22063;-65
2023/07/07 07:49:42;;;;;;;6.45;4.75;;;;;;;27.37;63.05;100237.41;1678893;85;21055;-66
2023/07/07 07:52:11;;;;;;;7.00;4.60;;;;;;;27.35;62.99;100230.42;1678722;85;21138;-65
2023/07/07 07:54:40;;;;;;;7.28;5.00;;;;;;;27.35;62.99;100230.42;1678664;85;21015;-66
2023/07/07 07:57:08;;;;;;;5.83;4.30;;;;;;;27.58;62.85;100235.56;1678737;85;21176;-68
2023/07/07 07:59:39;;;;;;;6.25;4.53;;;;;;;27.85;61.80;100234.70;1636624;87;21513;-68
2023/07/07 08:02:11;;;;;;;8.93;4.67;;;;;;;28.08;60.21;100239.25;1623198;88;21584;-66
2023/07/07 08:04:41;;;;;;;5.28;4.40;;;;;;;28.27;59.78;100243.33;1676242;82;21130;-66
2023/07/07 08:07:10;;;;;;;12.13;8.35;;;;;;;28.47;57.70;100248.45;1750385;82;21015;-65
2023/07/07 08:09:38;;;;;;;6.22;4.95;;;;;;;28.50;57.36;100252.62;1752609;82;21107;-65
2023/07/07 08:12:14;;;;;;;5.20;4.37;;;;;;;28.52;57.92;100257.36;1752670;82;21062;-66
2023/07/07 08:14:42;;;;;;;5.22;4.30;;;;;;;28.58;58.38;100262.55;1755920;81;21148;-66
2023/07/07 08:17:13;;;;;;;8.33;4.90;;;;;;;28.59;57.18;100256.33;1767206;81;21084;-66
2023/07/07 08:19:44;;;;;;;8.23;6.42;;;;;;;28.50;58.04;100259.09;1767414;81;21051;-66
2023/07/07 08:22:16;;;;;;;5.40;4.90;;;;;;;28.51;57.39;100264.98;1767190;81;21084;-65
2023/07/07 08:24:48;;;;;;;7.67;5.10;;;;;;;28.45;57.33;100267.67;1767261;81;21106;-66
2023/07/07 08:27:18;;;;;;;6.42;4.80;;;;;;;28.29;58.02;100268.63;1740569;81;21052;-65
2023/07/07 08:29:49;;;;;;;6.00;4.70;;;;;;;28.15;58.65;100270.63;1766981;81;21059;-66
2023/07/07 08:32:25;;;;;;;8.10;4.90;;;;;;;28.00;58.92;100284.50;1689022;84;21119;-65
2023/07/07 08:34:52;;;;;;;4.97;4.50;;;;;;;27.83;59.80;100279.23;1752589;82;21114;-66
2023/07/07 08:37:25;;;;;;;6.78;4.75;;;;;;;27.62;60.33;100281.09;1752612;82;21089;-65
2023/07/07 08:39:54;;;;;;;8.60;5.00;;;;;;;27.44;62.01;100279.20;1724083;82;21035;-65
2023/07/07 08:42:33;;;;;;;5.67;5.10;;;;;;;27.51;62.69;100279.61;1752347;82;21102;-65
2023/07/07 08:45:06;;;;;;;9.73;5.78;;;;;;;27.55;61.75;100271.37;1752279;82;21019;-65
2023/07/07 08:48:09;;;;;;;7.33;5.92;;;;;;;27.62;61.79;100276.04;1723239;82;21043;-66
2023/07/07 08:50:43;;;;;;;6.70;5.80;;;;;;;27.77;61.47;100272.31;1752167;82;21020;-67
2023/07/07 08:53:47;;;;;;;6.78;5.67;;;;;;;27.92;60.85;100278.17;1742862;82;21073;-68
2023/07/07 08:56:45;;;;;;;7.03;6.28;;;;;;;27.95;60.82;100278.95;1750387;82;21528;-67
2023/07/07 08:59:19;;;;;;;8.05;5.85;;;;;;;27.86;61.06;100271.00;1752426;82;21484;-68
2023/07/07 09:01:55;;;;;;;7.60;6.80;;;;;;;27.73;61.69;100270.45;1688272;85;21087;-67
2023/07/07 09:04:37;;;;;;;9.15;6.33;;;;;;;27.60;62.03;100274.91;1681630;85;21066;-68
2023/07/07 09:07:36;;;;;;;8.18;7.15;;;;;;;27.79;62.22;100266.37;1741362;82;21084;-69
2023/07/07 09:10:33;;;;;;;8.25;7.25;;;;;;;27.79;62.22;100266.37;1723774;82;21045;-70
2023/07/07 09:13:20;;;;;;;7.92;6.85;;;;;;;27.91;61.66;100289.19;1737156;82;21025;-68
2023/07/07 09:16:31;;;;;;;7.97;6.72;;;;;;;27.96;60.96;100283.47;1737045;82;21303;-69
2023/07/07 09:19:15;;;;;;;9.30;6.80;;;;;;;28.00;60.43;100277.45;1736995;82;21018;-70
2023/07/07 09:21:51;;;;;;;7.72;6.67;;;;;;;28.01;60.92;100283.92;1736951;82;21041;-67
2023/07/07 09:24:33;;;;;;;9.80;6.70;;;;;;;28.05;60.84;100287.20;1736890;82;21565;-66
2023/07/07 09:27:10;;;;;;;9.43;7.33;;;;;;;27.99;60.11;100277.20;1737104;82;21078;-68
2023/07/07 09:29:41;;;;;;;8.93;7.30;;;;;;;27.85;59.91;100277.78;1736930;82;21469;-69
2023/07/07 09:32:13;;;;;;;9.18;6.80;;;;;;;27.73;60.63;100271.86;1736828;82;21013;-68
2023/07/07 09:34:42;;;;;;;7.22;6.53;;;;;;;27.71;60.45;100284.00;1735683;82;21061;-67
2023/07/07 09:37:26;;;;;;;9.65;7.03;;;;;;;27.61;60.54;100274.37;1724692;82;21053;-68
2023/07/07 09:40:09;;;;;;;8.68;6.53;;;;;;;27.54;60.88;100278.98;1627121;87;21073;-69
2023/07/07 09:43:14;;;;;;;8.68;6.83;;;;;;;27.56;61.33;100268.25;1627030;87;21074;-68
2023/07/07 09:46:02;;;;;;;8.58;6.37;;;;;;;27.66;61.27;100267.22;1627226;87;21140;-68
2023/07/07 09:48:50;;;;;;;7.08;6.28;;;;;;;27.70;60.32;100261.22;1627318;87;21046;-68
2023/07/07 09:51:36;;;;;;;7.22;6.33;;;;;;;27.75;60.62;100261.11;1627442;88;21097;-68
2023/07/07 09:54:08;;;;;;;7.20;5.90;;;;;;;27.82;60.36;100255.88;1627504;88;21600;-68
2023/07/07 09:56:51;;;;;;;7.17;6.47;;;;;;;27.86;59.21;100251.28;1627151;87;21073;-68
2023/07/07 09:59:30;;;;;;;7.78;5.67;;;;;;;27.77;59.18;100237.12;1627242;87;21102;-67
2023/07/07 10:01:59;;;;;;;8.43;5.83;;;;;;;27.77;59.18;100237.12;1627346;88;21494;-67
2023/07/07 10:04:29;;;;;;;8.15;6.42;;;;;;;27.70;58.70;100231.08;1650666;83;21476;-68
2023/07/07 10:07:02;;;;;;;6.67;5.97;;;;;;;27.64;59.09;100231.52;1740206;82;21031;-66
2023/07/07 10:09:31;;;;;;;6.65;5.97;;;;;;;27.63;58.72;100227.03;1750016;82;21474;-67
2023/07/07 10:12:00;;;;;;;9.45;5.62;;;;;;;27.63;59.19;100215.77;1685636;85;21047;-68
2023/07/07 10:14:30;;;;;;;8.30;5.67;;;;;;;27.64;59.27;100218.84;1746016;82;21032;-68
2023/07/07 10:17:17;;;;;;;6.45;5.72;;;;;;;27.66;59.42;100219.36;1685795;85;21519;-67
2023/07/07 10:19:55;;;;;;;6.75;5.83;;;;;;;27.70;59.33;100221.80;1750061;82;21051;-68
2023/07/07 10:22:24;;;;;;;8.83;6.60;;;;;;;27.69;59.23;100220.14;1696846;82;21066;-69
2023/07/07 10:24:53;;;;;;;6.60;6.00;;;;;;;27.70;58.63;100216.17;1750226;82;21051;-69
2023/07/07 10:27:25;;;;;;;7.17;6.08;;;;;;;27.70;58.93;100215.59;1750184;82;21031;-70
2023/07/07 10:30:03;;;;;;;9.55;8.00;;;;;;;27.75;58.75;100216.06;1750391;82;21004;-67
2023/07/07 10:32:32;;;;;;;6.47;5.83;;;;;;;27.77;58.83;100214.59;1720895;82;21031;-68
2023/07/07 10:35:02;;;;;;;6.25;5.53;;;;;;;27.77;58.72;100210.94;1750211;82;21114;-67
2023/07/07 10:37:33;;;;;;;6.35;5.55;;;;;;;27.78;59.00;100205.57;1720065;83;21054;-67
2023/07/07 10:40:02;;;;;;;8.98;5.80;;;;;;;27.82;58.87;100200.97;1727529;83;21007;-65
2023/07/07 10:42:32;;;;;;;7.67;5.50;;;;;;;27.81;58.73;100202.12;1727346;83;21059;-68
2023/07/07 10:45:07;;;;;;;6.53;5.60;;;;;;;27.83;59.08;100204.05;1727442;83;20998;-68
2023/07/07 10:47:35;;;;;;;7.03;5.30;;;;;;;27.88;58.73;100196.05;1727249;83;21059;-66
2023/07/07 10:50:09;;;;;;;6.95;5.10;;;;;;;27.90;57.73;100195.16;1727209;83;21443;-66
2023/07/07 10:52:55;;;;;;;6.20;5.60;;;;;;;27.87;58.18;100191.56;1697126;83;21070;-67
2023/07/07 10:55:51;;;;;;;6.83;5.47;;;;;;;27.86;57.24;100185.10;1727464;83;21434;-68
2023/07/07 10:58:40;;;;;;;7.33;5.17;;;;;;;27.85;57.32;100182.60;1727326;83;21077;-68
2023/07/07 11:01:41;;;;;;;7.25;4.80;;;;;;;27.82;56.29;100171.40;1727392;83;21030;-67
2023/07/07 11:04:33;;;;;;;4.92;4.37;;;;;;;27.86;56.46;100171.02;1727232;83;21142;-68
2023/07/07 11:07:42;;;;;;;9.30;4.72;;;;;;;27.85;54.85;100171.34;1721582;83;21024;-67
2023/07/07 11:10:46;;;;;;;4.78;4.37;;;;;;;27.85;54.85;100171.34;1719288;83;21014;-68
2023/07/07 11:13:40;;;;;;;4.30;3.90;;;;;;;27.89;54.77;100167.56;1719314;83;21060;-67
2023/07/07 11:16:46;;;;;;;6.47;4.50;;;;;;;27.98;53.22;100171.31;1719266;83;21049;-67
2023/07/07 11:19:30;;;;;;;6.67;4.58;;;;;;;28.02;53.31;100172.34;1719586;83;21368;-67
2023/07/07 11:22:16;;;;;;;6.33;4.25;;;;;;;28.07;52.72;100173.63;1719241;83;21129;-66
2023/07/07 11:24:56;;;;;;;4.28;3.70;;;;;;;28.12;52.78;100165.63;1719099;83;21562;-67
2023/07/07 11:27:30;;;;;;;4.25;3.42;;;;;;;28.15;50.55;100188.92;1719411;83;21029;-67
2023/07/07 11:30:35;;;;;;;5.78;4.42;;;;;;;28.12;50.34;100180.28;1718847;83;21099;-67
2023/07/07 11:33:29;;;;;;;6.30;4.47;;;;;;;28.00;51.55;100187.33;1719488;83;21009;-67
2023/07/07 11:36:42;;;;;;;6.28;4.37;;;;;;;28.00;51.55;100187.33;1720486;82;21052;-67
2023/07/07 11:39:55;;;;;;;4.33;3.92;;;;;;;27.99;50.96;100192.70;1743938;82;21058;-69
2023/07/07 11:42:41;;;;;;;5.42;4.47;;;;;;;27.94;50.60;100197.02;1743610;82;21057;-66
2023/07/07 11:45:42;;;;;;;5.00;4.50;;;;;;;27.92;51.38;100192.85;1743571;81;21058;-67